sensor_id;sensor_type;location;lat;lon;timestamp;P1;durP1;ratioP1;P2;durP2;ratioP2
34136;SDS011;20414;50.860;4.382;2022-12-16T00:00:25;10.13;;;6.80;;
34136;SDS011;20414;50.860;4.382;2022-12-16T00:02:51;9.88;;;6.30;;
34136;SDS011;20414;50.860;4.382;2022-12-16T00:05:17;7.60;;;5.75;;
34136;SDS011;20414;50.860;4.382;2022-12-16T00:07:46;9.05;;;6.15;;
34136;SDS011;20414;50.860;4.382;2022-12-16T00:10:12;8.77;;;6.63;;
34136;SDS011;20414;50.860;4.382;2022-12-16T00:12:38;8.23;;;6.25;;
34136;SDS011;20414;50.860;4.382;2022-12-16T00:15:04;7.68;;;6.03;;
34136;SDS011;20414;50.860;4.382;2022-12-16T00:17:30;9.25;;;6.18;;
34136;SDS011;20414;50.860;4.382;2022-12-16T00:19:56;7.65;;;6.03;;
34136;SDS011;20414;50.860;4.382;2022-12-16T00:22:22;8.95;;;6.10;;
34136;SDS011;20414;50.860;4.382;2022-12-16T00:24:48;8.57;;;6.30;;
34136;SDS011;20414;50.860;4.382;2022-12-16T00:27:14;9.32;;;6.22;;
34136;SDS011;20414;50.860;4.382;2022-12-16T00:29:40;9.30;;;6.15;;
34136;SDS011;20414;50.860;4.382;2022-12-16T00:32:05;8.20;;;6.03;;
34136;SDS011;20414;50.860;4.382;2022-12-16T00:34:31;8.70;;;5.93;;
34136;SDS011;20414;50.860;4.382;2022-12-16T00:36:57;7.78;;;6.07;;
34136;SDS011;20414;50.860;4.382;2022-12-16T00:39:23;8.00;;;5.80;;
34136;SDS011;20414;50.860;4.382;2022-12-16T00:41:49;8.40;;;6.10;;
34136;SDS011;20414;50.860;4.382;2022-12-16T00:44:15;8.63;;;6.05;;
34136;SDS011;20414;50.860;4.382;2022-12-16T00:46:41;8.27;;;5.97;;
34136;SDS011;20414;50.860;4.382;2022-12-16T00:49:07;8.35;;;5.45;;
34136;SDS011;20414;50.860;4.382;2022-12-16T00:51:33;9.70;;;6.57;;
34136;SDS011;20414;50.860;4.382;2022-12-16T00:53:59;8.20;;;6.20;;
34136;SDS011;20414;50.860;4.382;2022-12-16T00:56:24;7.82;;;6.30;;
34136;SDS011;20414;50.860;4.382;2022-12-16T00:58:50;9.20;;;6.50;;
34136;SDS011;20414;50.860;4.382;2022-12-16T01:01:16;7.57;;;5.50;;
34136;SDS011;20414;50.860;4.382;2022-12-16T01:03:42;8.45;;;6.13;;
34136;SDS011;20414;50.860;4.382;2022-12-16T01:06:11;8.48;;;6.00;;
34136;SDS011;20414;50.860;4.382;2022-12-16T01:08:39;9.88;;;6.45;;
34136;SDS011;20414;50.860;4.382;2022-12-16T01:11:15;8.15;;;5.70;;
34136;SDS011;20414;50.860;4.382;2022-12-16T01:13:42;7.75;;;5.57;;
34136;SDS011;20414;50.860;4.382;2022-12-16T01:16:08;8.00;;;5.65;;
34136;SDS011;20414;50.860;4.382;2022-12-16T01:18:34;8.27;;;5.70;;
34136;SDS011;20414;50.860;4.382;2022-12-16T01:21:02;7.65;;;5.82;;
34136;SDS011;20414;50.860;4.382;2022-12-16T01:23:28;7.90;;;5.43;;
34136;SDS011;20414;50.860;4.382;2022-12-16T01:25:54;8.25;;;5.65;;
34136;SDS011;20414;50.860;4.382;2022-12-16T01:28:23;8.68;;;5.70;;
34136;SDS011;20414;50.860;4.382;2022-12-16T01:30:53;8.18;;;5.90;;
34136;SDS011;20414;50.860;4.382;2022-12-16T01:33:26;9.70;;;5.60;;
34136;SDS011;20414;50.860;4.382;2022-12-16T01:35:59;6.85;;;5.40;;
34136;SDS011;20414;50.860;4.382;2022-12-16T01:38:27;7.63;;;5.63;;
34136;SDS011;20414;50.860;4.382;2022-12-16T01:40:53;7.40;;;5.75;;
34136;SDS011;20414;50.860;4.382;2022-12-16T01:43:19;7.80;;;5.45;;
34136;SDS011;20414;50.860;4.382;2022-12-16T01:45:53;9.13;;;6.07;;
34136;SDS011;20414;50.860;4.382;2022-12-16T01:50:57;7.68;;;5.68;;
34136;SDS011;20414;50.860;4.382;2022-12-16T01:53:26;8.05;;;5.78;;
34136;SDS011;20414;50.860;4.382;2022-12-16T01:55:52;9.25;;;5.90;;
34136;SDS011;20414;50.860;4.382;2022-12-16T01:58:22;6.85;;;5.10;;
34136;SDS011;20414;50.860;4.382;2022-12-16T02:00:54;7.05;;;5.28;;
34136;SDS011;20414;50.860;4.382;2022-12-16T02:03:20;6.88;;;5.18;;
34136;SDS011;20414;50.860;4.382;2022-12-16T02:05:46;6.82;;;5.38;;
34136;SDS011;20414;50.860;4.382;2022-12-16T02:08:13;7.85;;;5.70;;
34136;SDS011;20414;50.860;4.382;2022-12-16T02:13:16;8.27;;;5.78;;
34136;SDS011;20414;50.860;4.382;2022-12-16T02:18:40;7.00;;;5.28;;
34136;SDS011;20414;50.860;4.382;2022-12-16T02:21:51;6.35;;;5.00;;
34136;SDS011;20414;50.860;4.382;2022-12-16T02:30:44;6.57;;;4.97;;
34136;SDS011;20414;50.860;4.382;2022-12-16T02:36:01;8.82;;;5.53;;
34136;SDS011;20414;50.860;4.382;2022-12-16T02:38:48;7.32;;;5.50;;
34136;SDS011;20414;50.860;4.382;2022-12-16T02:41:43;7.05;;;5.55;;
34136;SDS011;20414;50.860;4.382;2022-12-16T02:44:17;7.10;;;5.55;;
34136;SDS011;20414;50.860;4.382;2022-12-16T02:46:52;7.43;;;5.07;;
34136;SDS011;20414;50.860;4.382;2022-12-16T02:51:45;6.05;;;4.65;;
34136;SDS011;20414;50.860;4.382;2022-12-16T02:54:14;6.43;;;4.97;;
34136;SDS011;20414;50.860;4.382;2022-12-16T03:02:23;6.13;;;4.47;;
34136;SDS011;20414;50.860;4.382;2022-12-16T03:04:55;5.97;;;4.70;;
34136;SDS011;20414;50.860;4.382;2022-12-16T03:07:26;6.45;;;4.55;;
34136;SDS011;20414;50.860;4.382;2022-12-16T03:09:56;5.85;;;4.72;;
34136;SDS011;20414;50.860;4.382;2022-12-16T03:12:23;6.35;;;4.78;;
34136;SDS011;20414;50.860;4.382;2022-12-16T03:14:50;6.10;;;4.65;;
34136;SDS011;20414;50.860;4.382;2022-12-16T03:17:19;5.93;;;4.88;;
34136;SDS011;20414;50.860;4.382;2022-12-16T03:22:18;5.97;;;4.85;;
34136;SDS011;20414;50.860;4.382;2022-12-16T03:24:52;6.85;;;4.57;;
34136;SDS011;20414;50.860;4.382;2022-12-16T03:37:26;5.88;;;4.50;;
34136;SDS011;20414;50.860;4.382;2022-12-16T03:39:57;5.63;;;4.40;;
34136;SDS011;20414;50.860;4.382;2022-12-16T03:42:25;5.40;;;4.10;;
34136;SDS011;20414;50.860;4.382;2022-12-16T03:44:51;5.43;;;4.10;;
34136;SDS011;20414;50.860;4.382;2022-12-16T03:47:17;6.38;;;4.47;;
34136;SDS011;20414;50.860;4.382;2022-12-16T03:49:43;5.93;;;4.25;;
34136;SDS011;20414;50.860;4.382;2022-12-16T03:52:09;4.82;;;4.00;;
34136;SDS011;20414;50.860;4.382;2022-12-16T03:54:35;5.85;;;4.47;;
34136;SDS011;20414;50.860;4.382;2022-12-16T03:57:01;5.55;;;4.25;;
34136;SDS011;20414;50.860;4.382;2022-12-16T03:59:27;5.97;;;4.38;;
34136;SDS011;20414;50.860;4.382;2022-12-16T04:01:53;5.15;;;4.35;;
34136;SDS011;20414;50.860;4.382;2022-12-16T04:04:19;5.97;;;4.68;;
34136;SDS011;20414;50.860;4.382;2022-12-16T04:06:44;5.60;;;4.45;;
34136;SDS011;20414;50.860;4.382;2022-12-16T04:09:30;5.88;;;4.68;;
34136;SDS011;20414;50.860;4.382;2022-12-16T04:11:56;6.18;;;4.50;;
34136;SDS011;20414;50.860;4.382;2022-12-16T04:14:40;5.28;;;4.30;;
34136;SDS011;20414;50.860;4.382;2022-12-16T04:17:24;5.35;;;4.15;;
34136;SDS011;20414;50.860;4.382;2022-12-16T04:20:12;5.53;;;4.05;;
34136;SDS011;20414;50.860;4.382;2022-12-16T04:22:59;6.07;;;4.38;;
34136;SDS011;20414;50.860;4.382;2022-12-16T04:25:43;6.05;;;4.53;;
34136;SDS011;20414;50.860;4.382;2022-12-16T04:28:09;6.15;;;4.35;;
34136;SDS011;20414;50.860;4.382;2022-12-16T04:30:35;5.20;;;4.00;;
34136;SDS011;20414;50.860;4.382;2022-12-16T04:33:02;5.47;;;4.30;;
34136;SDS011;20414;50.860;4.382;2022-12-16T04:35:49;6.30;;;4.25;;
34136;SDS011;20414;50.860;4.382;2022-12-16T04:38:33;5.80;;;4.03;;
34136;SDS011;20414;50.860;4.382;2022-12-16T04:41:18;4.75;;;3.70;;
34136;SDS011;20414;50.860;4.382;2022-12-16T04:44:03;5.43;;;4.43;;
34136;SDS011;20414;50.860;4.382;2022-12-16T04:46:47;4.72;;;4.00;;
34136;SDS011;20414;50.860;4.382;2022-12-16T04:49:31;4.80;;;3.85;;
34136;SDS011;20414;50.860;4.382;2022-12-16T04:52:15;5.40;;;4.13;;
34136;SDS011;20414;50.860;4.382;2022-12-16T04:55:00;5.03;;;4.03;;
34136;SDS011;20414;50.860;4.382;2022-12-16T04:57:50;5.15;;;3.85;;
34136;SDS011;20414;50.860;4.382;2022-12-16T05:00:35;5.47;;;3.97;;
34136;SDS011;20414;50.860;4.382;2022-12-16T05:03:19;5.72;;;3.95;;
34136;SDS011;20414;50.860;4.382;2022-12-16T05:06:03;5.95;;;4.13;;
34136;SDS011;20414;50.860;4.382;2022-12-16T05:08:48;5.15;;;4.07;;
34136;SDS011;20414;50.860;4.382;2022-12-16T05:11:32;5.00;;;4.10;;
34136;SDS011;20414;50.860;4.382;2022-12-16T05:14:16;5.53;;;4.03;;
34136;SDS011;20414;50.860;4.382;2022-12-16T05:17:00;4.50;;;4.00;;
34136;SDS011;20414;50.860;4.382;2022-12-16T05:19:45;5.75;;;4.05;;
34136;SDS011;20414;50.860;4.382;2022-12-16T05:22:29;4.55;;;3.83;;
34136;SDS011;20414;50.860;4.382;2022-12-16T05:25:13;4.57;;;3.63;;
34136;SDS011;20414;50.860;4.382;2022-12-16T05:27:57;4.50;;;3.53;;
34136;SDS011;20414;50.860;4.382;2022-12-16T05:30:42;4.82;;;3.83;;
34136;SDS011;20414;50.860;4.382;2022-12-16T05:33:26;4.22;;;3.38;;
34136;SDS011;20414;50.860;4.382;2022-12-16T05:36:10;4.60;;;3.60;;
34136;SDS011;20414;50.860;4.382;2022-12-16T05:38:54;4.72;;;3.33;;
34136;SDS011;20414;50.860;4.382;2022-12-16T05:41:39;5.15;;;4.00;;
34136;SDS011;20414;50.860;4.382;2022-12-16T05:44:24;4.80;;;3.65;;
34136;SDS011;20414;50.860;4.382;2022-12-16T05:47:08;5.32;;;4.13;;
34136;SDS011;20414;50.860;4.382;2022-12-16T05:49:53;4.88;;;3.58;;
34136;SDS011;20414;50.860;4.382;2022-12-16T05:52:37;5.00;;;4.18;;
34136;SDS011;20414;50.860;4.382;2022-12-16T05:55:22;5.15;;;3.60;;
34136;SDS011;20414;50.860;4.382;2022-12-16T05:58:07;5.22;;;3.95;;
34136;SDS011;20414;50.860;4.382;2022-12-16T06:00:52;5.35;;;3.97;;
34136;SDS011;20414;50.860;4.382;2022-12-16T06:03:36;5.38;;;3.80;;
34136;SDS011;20414;50.860;4.382;2022-12-16T06:06:20;5.30;;;3.67;;
34136;SDS011;20414;50.860;4.382;2022-12-16T06:09:04;4.25;;;3.65;;
34136;SDS011;20414;50.860;4.382;2022-12-16T06:11:48;5.15;;;3.55;;
34136;SDS011;20414;50.860;4.382;2022-12-16T06:14:34;4.35;;;3.40;;
34136;SDS011;20414;50.860;4.382;2022-12-16T06:17:19;4.22;;;3.63;;
34136;SDS011;20414;50.860;4.382;2022-12-16T06:20:04;4.78;;;3.67;;
34136;SDS011;20414;50.860;4.382;2022-12-16T06:22:49;5.40;;;3.83;;
34136;SDS011;20414;50.860;4.382;2022-12-16T06:25:34;4.40;;;3.47;;
34136;SDS011;20414;50.860;4.382;2022-12-16T06:28:18;5.25;;;3.60;;
34136;SDS011;20414;50.860;4.382;2022-12-16T06:31:02;6.50;;;3.45;;
34136;SDS011;20414;50.860;4.382;2022-12-16T06:33:47;4.45;;;3.20;;
34136;SDS011;20414;50.860;4.382;2022-12-16T06:36:44;4.57;;;3.40;;
34136;SDS011;20414;50.860;4.382;2022-12-16T06:39:29;3.80;;;3.40;;
34136;SDS011;20414;50.860;4.382;2022-12-16T06:42:13;4.10;;;3.42;;
34136;SDS011;20414;50.860;4.382;2022-12-16T06:44:58;4.50;;;3.38;;
34136;SDS011;20414;50.860;4.382;2022-12-16T06:47:42;4.72;;;3.60;;
34136;SDS011;20414;50.860;4.382;2022-12-16T06:50:29;4.95;;;3.35;;
34136;SDS011;20414;50.860;4.382;2022-12-16T06:53:14;4.95;;;3.50;;
34136;SDS011;20414;50.860;4.382;2022-12-16T06:55:58;5.30;;;3.55;;
34136;SDS011;20414;50.860;4.382;2022-12-16T06:58:42;4.47;;;3.10;;
34136;SDS011;20414;50.860;4.382;2022-12-16T07:01:26;4.10;;;3.10;;
34136;SDS011;20414;50.860;4.382;2022-12-16T07:04:10;4.47;;;3.60;;
34136;SDS011;20414;50.860;4.382;2022-12-16T07:06:55;3.60;;;2.83;;
34136;SDS011;20414;50.860;4.382;2022-12-16T07:09:39;4.65;;;3.55;;
34136;SDS011;20414;50.860;4.382;2022-12-16T07:12:23;4.80;;;3.63;;
34136;SDS011;20414;50.860;4.382;2022-12-16T07:15:08;4.30;;;3.40;;
34136;SDS011;20414;50.860;4.382;2022-12-16T07:17:53;4.13;;;3.33;;
34136;SDS011;20414;50.860;4.382;2022-12-16T07:20:37;3.75;;;2.90;;
34136;SDS011;20414;50.860;4.382;2022-12-16T07:23:22;4.32;;;3.30;;
34136;SDS011;20414;50.860;4.382;2022-12-16T07:26:06;4.03;;;3.40;;
34136;SDS011;20414;50.860;4.382;2022-12-16T07:28:53;3.58;;;3.05;;
34136;SDS011;20414;50.860;4.382;2022-12-16T07:31:38;3.90;;;3.25;;
34136;SDS011;20414;50.860;4.382;2022-12-16T07:34:22;4.50;;;3.33;;
34136;SDS011;20414;50.860;4.382;2022-12-16T07:37:06;4.15;;;3.17;;
34136;SDS011;20414;50.860;4.382;2022-12-16T07:39:50;4.18;;;3.05;;
34136;SDS011;20414;50.860;4.382;2022-12-16T07:42:34;3.92;;;2.83;;
34136;SDS011;20414;50.860;4.382;2022-12-16T07:45:18;5.13;;;3.30;;
34136;SDS011;20414;50.860;4.382;2022-12-16T07:48:02;4.30;;;3.00;;
34136;SDS011;20414;50.860;4.382;2022-12-16T07:50:47;4.55;;;3.15;;
34136;SDS011;20414;50.860;4.382;2022-12-16T07:53:33;3.33;;;3.03;;
34136;SDS011;20414;50.860;4.382;2022-12-16T07:56:17;3.50;;;2.88;;
34136;SDS011;20414;50.860;4.382;2022-12-16T07:59:01;3.85;;;3.28;;
34136;SDS011;20414;50.860;4.382;2022-12-16T08:01:45;3.90;;;2.95;;
34136;SDS011;20414;50.860;4.382;2022-12-16T08:04:30;3.53;;;2.80;;
34136;SDS011;20414;50.860;4.382;2022-12-16T08:07:15;3.88;;;3.10;;
34136;SDS011;20414;50.860;4.382;2022-12-16T08:09:59;5.40;;;3.25;;
34136;SDS011;20414;50.860;4.382;2022-12-16T08:12:43;3.53;;;2.70;;
34136;SDS011;20414;50.860;4.382;2022-12-16T08:15:28;5.13;;;3.13;;
34136;SDS011;20414;50.860;4.382;2022-12-16T08:18:13;4.40;;;2.85;;
34136;SDS011;20414;50.860;4.382;2022-12-16T08:20:58;3.47;;;2.75;;
34136;SDS011;20414;50.860;4.382;2022-12-16T08:23:42;3.47;;;2.75;;
34136;SDS011;20414;50.860;4.382;2022-12-16T08:26:26;3.25;;;2.85;;
34136;SDS011;20414;50.860;4.382;2022-12-16T08:29:11;4.65;;;2.90;;
34136;SDS011;20414;50.860;4.382;2022-12-16T08:31:55;3.03;;;2.50;;
34136;SDS011;20414;50.860;4.382;2022-12-16T08:34:39;3.08;;;2.60;;
34136;SDS011;20414;50.860;4.382;2022-12-16T08:37:24;3.10;;;2.72;;
34136;SDS011;20414;50.860;4.382;2022-12-16T08:40:09;2.72;;;2.40;;
34136;SDS011;20414;50.860;4.382;2022-12-16T08:42:57;3.85;;;3.33;;
34136;SDS011;20414;50.860;4.382;2022-12-16T08:45:44;3.03;;;2.50;;
34136;SDS011;20414;50.860;4.382;2022-12-16T08:48:28;3.55;;;2.97;;
34136;SDS011;20414;50.860;4.382;2022-12-16T08:51:12;3.22;;;2.60;;
34136;SDS011;20414;50.860;4.382;2022-12-16T08:54:01;3.17;;;2.58;;
34136;SDS011;20414;50.860;4.382;2022-12-16T08:56:45;3.08;;;2.53;;
34136;SDS011;20414;50.860;4.382;2022-12-16T08:59:29;3.63;;;2.63;;
34136;SDS011;20414;50.860;4.382;2022-12-16T09:02:13;5.60;;;2.75;;
34136;SDS011;20414;50.860;4.382;2022-12-16T09:04:58;2.97;;;2.30;;
34136;SDS011;20414;50.860;4.382;2022-12-16T09:07:42;3.40;;;2.60;;
34136;SDS011;20414;50.860;4.382;2022-12-16T09:10:26;3.10;;;2.30;;
34136;SDS011;20414;50.860;4.382;2022-12-16T09:13:11;4.22;;;2.72;;
34136;SDS011;20414;50.860;4.382;2022-12-16T09:15:57;4.03;;;2.63;;
34136;SDS011;20414;50.860;4.382;2022-12-16T09:18:42;3.13;;;2.42;;
34136;SDS011;20414;50.860;4.382;2022-12-16T09:21:26;2.83;;;2.40;;
34136;SDS011;20414;50.860;4.382;2022-12-16T09:24:10;3.10;;;2.10;;
34136;SDS011;20414;50.860;4.382;2022-12-16T09:26:54;2.75;;;2.20;;
34136;SDS011;20414;50.860;4.382;2022-12-16T09:29:38;3.00;;;2.38;;
34136;SDS011;20414;50.860;4.382;2022-12-16T09:32:23;2.88;;;2.50;;
34136;SDS011;20414;50.860;4.382;2022-12-16T09:35:07;3.22;;;2.63;;
34136;SDS011;20414;50.860;4.382;2022-12-16T09:37:51;3.13;;;2.50;;
34136;SDS011;20414;50.860;4.382;2022-12-16T09:40:39;3.53;;;2.40;;
34136;SDS011;20414;50.860;4.382;2022-12-16T09:49:35;3.78;;;2.50;;
34136;SDS011;20414;50.860;4.382;2022-12-16T09:52:32;3.00;;;2.25;;
34136;SDS011;20414;50.860;4.382;2022-12-16T09:55:28;2.53;;;2.10;;
34136;SDS011;20414;50.860;4.382;2022-12-16T09:58:16;2.70;;;2.10;;
34136;SDS011;20414;50.860;4.382;2022-12-16T10:01:03;3.40;;;2.40;;
34136;SDS011;20414;50.860;4.382;2022-12-16T10:03:47;2.88;;;2.05;;
34136;SDS011;20414;50.860;4.382;2022-12-16T10:07:05;3.47;;;2.25;;
34136;SDS011;20414;50.860;4.382;2022-12-16T10:16:07;2.30;;;1.92;;
34136;SDS011;20414;50.860;4.382;2022-12-16T10:22:10;3.33;;;2.45;;
34136;SDS011;20414;50.860;4.382;2022-12-16T10:25:19;3.85;;;2.00;;
34136;SDS011;20414;50.860;4.382;2022-12-16T10:28:25;2.50;;;1.98;;
34136;SDS011;20414;50.860;4.382;2022-12-16T10:31:18;6.75;;;2.40;;
34136;SDS011;20414;50.860;4.382;2022-12-16T10:34:04;3.53;;;2.30;;
34136;SDS011;20414;50.860;4.382;2022-12-16T10:37:03;2.42;;;2.05;;
34136;SDS011;20414;50.860;4.382;2022-12-16T10:39:58;3.78;;;2.05;;
34136;SDS011;20414;50.860;4.382;2022-12-16T10:42:48;2.65;;;2.13;;
34136;SDS011;20414;50.860;4.382;2022-12-16T10:45:56;2.60;;;2.00;;
34136;SDS011;20414;50.860;4.382;2022-12-16T10:48:41;2.88;;;2.13;;
34136;SDS011;20414;50.860;4.382;2022-12-16T10:54:50;2.95;;;1.95;;
34136;SDS011;20414;50.860;4.382;2022-12-16T11:00:49;2.67;;;2.13;;
34136;SDS011;20414;50.860;4.382;2022-12-16T11:03:35;2.85;;;2.10;;
34136;SDS011;20414;50.860;4.382;2022-12-16T11:06:22;3.08;;;2.08;;
34136;SDS011;20414;50.860;4.382;2022-12-16T11:12:13;3.63;;;2.25;;
34136;SDS011;20414;50.860;4.382;2022-12-16T11:18:12;2.67;;;2.08;;
34136;SDS011;20414;50.860;4.382;2022-12-16T11:24:09;2.50;;;2.17;;
34136;SDS011;20414;50.860;4.382;2022-12-16T11:27:04;3.65;;;2.20;;
34136;SDS011;20414;50.860;4.382;2022-12-16T11:29:55;2.60;;;1.83;;
34136;SDS011;20414;50.860;4.382;2022-12-16T11:32:51;2.70;;;2.00;;
34136;SDS011;20414;50.860;4.382;2022-12-16T11:35:40;2.78;;;2.13;;
34136;SDS011;20414;50.860;4.382;2022-12-16T11:38:28;3.63;;;1.98;;
34136;SDS011;20414;50.860;4.382;2022-12-16T11:41:23;2.42;;;2.20;;
34136;SDS011;20414;50.860;4.382;2022-12-16T11:44:18;3.90;;;1.90;;
34136;SDS011;20414;50.860;4.382;2022-12-16T11:50:26;2.55;;;1.80;;
34136;SDS011;20414;50.860;4.382;2022-12-16T11:56:23;2.42;;;1.70;;
34136;SDS011;20414;50.860;4.382;2022-12-16T11:59:56;4.68;;;2.00;;
34136;SDS011;20414;50.860;4.382;2022-12-16T12:05:20;2.58;;;1.75;;
34136;SDS011;20414;50.860;4.382;2022-12-16T12:08:17;2.92;;;2.00;;
34136;SDS011;20414;50.860;4.382;2022-12-16T12:22:29;2.85;;;1.83;;
34136;SDS011;20414;50.860;4.382;2022-12-16T12:28:07;2.55;;;1.83;;
34136;SDS011;20414;50.860;4.382;2022-12-16T12:40:33;2.60;;;2.00;;
34136;SDS011;20414;50.860;4.382;2022-12-16T12:46:09;2.47;;;1.52;;
34136;SDS011;20414;50.860;4.382;2022-12-16T12:49:28;2.72;;;1.88;;
34136;SDS011;20414;50.860;4.382;2022-12-16T12:55:22;3.28;;;2.00;;
34136;SDS011;20414;50.860;4.382;2022-12-16T12:58:15;3.22;;;1.80;;
34136;SDS011;20414;50.860;4.382;2022-12-16T13:01:01;2.22;;;1.73;;
34136;SDS011;20414;50.860;4.382;2022-12-16T13:03:49;2.03;;;1.70;;
34136;SDS011;20414;50.860;4.382;2022-12-16T13:06:37;2.35;;;1.75;;
34136;SDS011;20414;50.860;4.382;2022-12-16T13:09:27;2.60;;;1.58;;
34136;SDS011;20414;50.860;4.382;2022-12-16T13:18:27;2.28;;;1.70;;
34136;SDS011;20414;50.860;4.382;2022-12-16T13:21:45;1.95;;;1.50;;
34136;SDS011;20414;50.860;4.382;2022-12-16T13:27:09;2.25;;;1.70;;
34136;SDS011;20414;50.860;4.382;2022-12-16T13:30:15;2.00;;;1.70;;
34136;SDS011;20414;50.860;4.382;2022-12-16T13:33:18;3.58;;;1.85;;
34136;SDS011;20414;50.860;4.382;2022-12-16T13:36:14;2.45;;;1.88;;
34136;SDS011;20414;50.860;4.382;2022-12-16T13:45:22;1.77;;;1.48;;
34136;SDS011;20414;50.860;4.382;2022-12-16T13:48:34;2.53;;;1.67;;
34136;SDS011;20414;50.860;4.382;2022-12-16T13:54:27;2.35;;;1.63;;
34136;SDS011;20414;50.860;4.382;2022-12-16T13:57:15;2.25;;;1.60;;
34136;SDS011;20414;50.860;4.382;2022-12-16T14:00:03;2.05;;;1.55;;
34136;SDS011;20414;50.860;4.382;2022-12-16T14:02:49;2.20;;;1.58;;
34136;SDS011;20414;50.860;4.382;2022-12-16T14:05:35;1.70;;;1.52;;
34136;SDS011;20414;50.860;4.382;2022-12-16T14:08:24;2.13;;;1.60;;
34136;SDS011;20414;50.860;4.382;2022-12-16T14:14:32;2.53;;;1.88;;
34136;SDS011;20414;50.860;4.382;2022-12-16T14:17:34;2.38;;;1.55;;
34136;SDS011;20414;50.860;4.382;2022-12-16T14:20:34;1.63;;;1.40;;
34136;SDS011;20414;50.860;4.382;2022-12-16T14:23:54;2.13;;;1.40;;
34136;SDS011;20414;50.860;4.382;2022-12-16T14:26:46;1.42;;;1.20;;
34136;SDS011;20414;50.860;4.382;2022-12-16T14:29:32;1.75;;;1.40;;
34136;SDS011;20414;50.860;4.382;2022-12-16T14:35:01;1.80;;;1.33;;
34136;SDS011;20414;50.860;4.382;2022-12-16T14:37:47;1.30;;;1.20;;
34136;SDS011;20414;50.860;4.382;2022-12-16T14:40:31;1.60;;;1.20;;
34136;SDS011;20414;50.860;4.382;2022-12-16T14:43:23;2.85;;;1.50;;
34136;SDS011;20414;50.860;4.382;2022-12-16T14:49:17;2.10;;;1.60;;
34136;SDS011;20414;50.860;4.382;2022-12-16T14:52:28;1.85;;;1.50;;
34136;SDS011;20414;50.860;4.382;2022-12-16T14:55:34;1.52;;;1.38;;
34136;SDS011;20414;50.860;4.382;2022-12-16T14:58:21;1.67;;;1.30;;
34136;SDS011;20414;50.860;4.382;2022-12-16T15:04:01;2.08;;;1.10;;
34136;SDS011;20414;50.860;4.382;2022-12-16T15:06:58;1.83;;;1.30;;
34136;SDS011;20414;50.860;4.382;2022-12-16T15:09:46;1.23;;;1.10;;
34136;SDS011;20414;50.860;4.382;2022-12-16T15:12:35;1.70;;;1.30;;
34136;SDS011;20414;50.860;4.382;2022-12-16T15:15:34;2.50;;;1.70;;
34136;SDS011;20414;50.860;4.382;2022-12-16T15:18:25;1.85;;;1.27;;
34136;SDS011;20414;50.860;4.382;2022-12-16T15:21:15;1.88;;;1.25;;
34136;SDS011;20414;50.860;4.382;2022-12-16T15:23:59;1.40;;;1.10;;
34136;SDS011;20414;50.860;4.382;2022-12-16T15:26:44;1.70;;;1.23;;
34136;SDS011;20414;50.860;4.382;2022-12-16T15:29:31;1.85;;;1.50;;
34136;SDS011;20414;50.860;4.382;2022-12-16T15:38:17;1.92;;;1.30;;
34136;SDS011;20414;50.860;4.382;2022-12-16T15:41:05;1.42;;;1.20;;
34136;SDS011;20414;50.860;4.382;2022-12-16T15:43:49;2.13;;;1.35;;
34136;SDS011;20414;50.860;4.382;2022-12-16T15:46:35;1.42;;;1.13;;
34136;SDS011;20414;50.860;4.382;2022-12-16T15:55:29;2.00;;;1.25;;
34136;SDS011;20414;50.860;4.382;2022-12-16T15:58:24;1.63;;;1.30;;
34136;SDS011;20414;50.860;4.382;2022-12-16T16:01:14;2.28;;;1.20;;
34136;SDS011;20414;50.860;4.382;2022-12-16T16:06:48;2.20;;;1.58;;
34136;SDS011;20414;50.860;4.382;2022-12-16T16:09:35;1.17;;;1.08;;
34136;SDS011;20414;50.860;4.382;2022-12-16T16:12:21;2.22;;;1.25;;
34136;SDS011;20414;50.860;4.382;2022-12-16T16:15:07;1.70;;;1.30;;
34136;SDS011;20414;50.860;4.382;2022-12-16T16:17:55;1.20;;;1.10;;
34136;SDS011;20414;50.860;4.382;2022-12-16T16:20:45;1.20;;;1.05;;
34136;SDS011;20414;50.860;4.382;2022-12-16T16:23:30;2.17;;;1.40;;
34136;SDS011;20414;50.860;4.382;2022-12-16T16:26:16;1.98;;;1.25;;
34136;SDS011;20414;50.860;4.382;2022-12-16T16:29:03;1.45;;;1.25;;
34136;SDS011;20414;50.860;4.382;2022-12-16T16:31:47;1.25;;;1.10;;
34136;SDS011;20414;50.860;4.382;2022-12-16T16:34:31;2.03;;;1.20;;
34136;SDS011;20414;50.860;4.382;2022-12-16T16:37:16;1.95;;;1.25;;
34136;SDS011;20414;50.860;4.382;2022-12-16T16:40:15;1.40;;;1.10;;
34136;SDS011;20414;50.860;4.382;2022-12-16T16:43:17;2.00;;;1.38;;
34136;SDS011;20414;50.860;4.382;2022-12-16T16:46:04;1.63;;;1.27;;
34136;SDS011;20414;50.860;4.382;2022-12-16T16:49:08;1.77;;;1.20;;
34136;SDS011;20414;50.860;4.382;2022-12-16T16:51:53;1.30;;;1.20;;
34136;SDS011;20414;50.860;4.382;2022-12-16T16:54:38;1.73;;;1.15;;
34136;SDS011;20414;50.860;4.382;2022-12-16T16:57:23;2.00;;;1.30;;
34136;SDS011;20414;50.860;4.382;2022-12-16T17:00:12;2.42;;;1.33;;
34136;SDS011;20414;50.860;4.382;2022-12-16T17:02:56;2.38;;;1.23;;
34136;SDS011;20414;50.860;4.382;2022-12-16T17:05:40;1.70;;;1.45;;
34136;SDS011;20414;50.860;4.382;2022-12-16T17:08:25;2.10;;;1.50;;
34136;SDS011;20414;50.860;4.382;2022-12-16T17:11:12;1.77;;;1.35;;
34136;SDS011;20414;50.860;4.382;2022-12-16T17:14:00;1.48;;;1.35;;
34136;SDS011;20414;50.860;4.382;2022-12-16T17:16:44;2.03;;;1.45;;
34136;SDS011;20414;50.860;4.382;2022-12-16T17:19:28;2.15;;;1.50;;
34136;SDS011;20414;50.860;4.382;2022-12-16T17:22:12;1.77;;;1.40;;
34136;SDS011;20414;50.860;4.382;2022-12-16T17:24:56;2.60;;;1.50;;
34136;SDS011;20414;50.860;4.382;2022-12-16T17:27:42;1.60;;;1.30;;
34136;SDS011;20414;50.860;4.382;2022-12-16T17:30:28;1.52;;;1.25;;
34136;SDS011;20414;50.860;4.382;2022-12-16T17:33:13;2.38;;;1.35;;
34136;SDS011;20414;50.860;4.382;2022-12-16T17:35:58;2.35;;;1.40;;
34136;SDS011;20414;50.860;4.382;2022-12-16T17:38:43;2.85;;;1.60;;
34136;SDS011;20414;50.860;4.382;2022-12-16T17:41:27;3.03;;;1.60;;
34136;SDS011;20414;50.860;4.382;2022-12-16T17:44:12;1.63;;;1.45;;
34136;SDS011;20414;50.860;4.382;2022-12-16T17:46:57;1.75;;;1.40;;
34136;SDS011;20414;50.860;4.382;2022-12-16T17:49:42;2.10;;;1.50;;
34136;SDS011;20414;50.860;4.382;2022-12-16T17:52:26;2.65;;;1.70;;
34136;SDS011;20414;50.860;4.382;2022-12-16T17:55:10;2.95;;;1.77;;
34136;SDS011;20414;50.860;4.382;2022-12-16T17:57:55;2.10;;;1.70;;
34136;SDS011;20414;50.860;4.382;2022-12-16T18:00:41;2.75;;;1.70;;
34136;SDS011;20414;50.860;4.382;2022-12-16T18:03:25;2.22;;;1.73;;
34136;SDS011;20414;50.860;4.382;2022-12-16T18:06:09;2.67;;;1.60;;
34136;SDS011;20414;50.860;4.382;2022-12-16T18:08:53;2.90;;;1.65;;
34136;SDS011;20414;50.860;4.382;2022-12-16T18:11:38;2.15;;;1.67;;
34136;SDS011;20414;50.860;4.382;2022-12-16T18:14:22;2.00;;;1.80;;
34136;SDS011;20414;50.860;4.382;2022-12-16T18:17:06;2.38;;;1.60;;
34136;SDS011;20414;50.860;4.382;2022-12-16T18:19:53;2.30;;;1.63;;
34136;SDS011;20414;50.860;4.382;2022-12-16T18:22:37;2.60;;;1.83;;
34136;SDS011;20414;50.860;4.382;2022-12-16T18:25:21;2.63;;;1.77;;
34136;SDS011;20414;50.860;4.382;2022-12-16T18:28:05;2.50;;;1.90;;
34136;SDS011;20414;50.860;4.382;2022-12-16T18:30:50;2.20;;;1.67;;
34136;SDS011;20414;50.860;4.382;2022-12-16T18:33:34;2.50;;;1.98;;
34136;SDS011;20414;50.860;4.382;2022-12-16T18:36:18;2.90;;;1.95;;
34136;SDS011;20414;50.860;4.382;2022-12-16T18:39:03;3.45;;;1.90;;
34136;SDS011;20414;50.860;4.382;2022-12-16T18:41:47;2.42;;;2.00;;
34136;SDS011;20414;50.860;4.382;2022-12-16T18:44:31;3.65;;;2.25;;
34136;SDS011;20414;50.860;4.382;2022-12-16T18:47:16;3.33;;;2.20;;
34136;SDS011;20414;50.860;4.382;2022-12-16T18:50:04;3.30;;;2.30;;
34136;SDS011;20414;50.860;4.382;2022-12-16T18:52:51;3.22;;;2.20;;
34136;SDS011;20414;50.860;4.382;2022-12-16T18:55:35;3.67;;;2.10;;